aviador You're here:

OINR Decoded Metar

RAMSAR in IRAN
Report Time2017-08-23 03:00:00
UTC Time2017-08-23 04:03:59
Flight Rules vfr VFR
Wind250° at 04 kt
W.Decomp.*RWY 31: 1.8 kt HW 3.6 kt LCW
W.Rank250° ranks 21
Current wind is below 250° avg. (4.3)
Visibility9999 m
Phenomena:N/A
Clouds:Few 027 Hf
Expected CloudBase > 1,200 ft AGL from Temp-Dew spread
CeilingNone
Temp26°C (ISA +11)
Dew Point23°C (84% RH)
QNH1006 hPa
Density Alt1,795 ft
Elevation-66 ft
Report Wrong Elevation
Raw Report
OINR 230300Z 25004KT 9999 FEW027 26/23 Q1006=

Extra information for OINR:More info

Metar Taf Metar & Taf Last 4 Metars F.Rules Stats Wind Profile Meteogram Temp Stats Airport Information Weather charts Add Link Nearby VenuesMetar ALERT Operation Metar Decoded Social comments